Airfield :
LOGIN :

Register | Disclaimer

   EN    FR    IT 

 










Legend :    VFR   Marginal VFR   IFR   Intensive IFR   Very Intensive IFR
Visi :
Ceiling :
>= 8 km
>= 3000ft
5 to 8 km
1000 to 3000 ft
1500m to 5 km
500 to 1000 ft
800 to 1500m
200 to 500 ft
< 800m
< 200 ft
Symbols :   Thunderstorms  Fog  Heavy snow  Heavy precipitations  Wind > 20 kt
SIGMETs :     Misc.  Thunderstorms  Icing  Turbulence  Mountain Waves  Volcanic Ashes







- Airport Elevation : 100 ft
- IATA code : DCI


LIED - Decimomannu Air Base

CURRENT METAR :
  • 141655Z 14005KT 9999 FEW025 17/16 Q1023 RMK SCT SCT080 VIS MIN 9999 WIND THR35 /////KT WIND THR17 /////KT BLU

EXPIRED METARs :
  • 141555Z 14006KT 9999 FEW025 18/17 Q1023 RMK SCT SCT070 VIS MIN 9999 WIND THR35 /////KT WIND THR17 /////KT BLU
  • 141455Z 17007KT 9999 SCT025 19/17 Q1023 RMK SCT VIS MIN 9999 WIND THR35 /////KT WIND THR17 /////KT BLU
  • 141355Z 16007KT 9999 SCT025 20/17 Q1023 RMK SCT VIS MIN 9999 WIND THR35 /////KT WIND THR17 /////KT BLU

TAF TAF LIED
Valid from the 14 at 15:00 until the 15 at 00:00 UTC


141400Z 1415/1424 15010KT 9999 FEW025
No reported NOTAMs for that airfield.



MET'MAP, your aeronautical weather chart ! - Copyright ORBIFLY December 2007 - Disclaimer

ORBIFLY MET'MAP TEAM :

Programming & Development : Alexandra Zaïnal
Concept & Development : Baudouin d'Aumeries
Co-Development & Prog : Marc-Olivier Méhu
Technical & hardware support : Manuel Goepfert

Contact : metmap@orbifly.com




SOURCES & CREDITS :

   NOAA